createdAt,value
2023-05-13T00:01:49.819Z,3.25
2023-05-13T00:04:54.679Z,4.30
2023-05-13T00:08:02.213Z,3.70
2023-05-13T00:11:07.819Z,4.07
2023-05-13T00:14:12.363Z,3.70
2023-05-13T00:17:17.882Z,4.07
2023-05-13T00:20:22.412Z,3.40
2023-05-13T00:23:31.622Z,3.53
2023-05-13T00:26:36.685Z,3.95
2023-05-13T00:29:41.273Z,3.28
2023-05-13T00:32:45.659Z,3.90
2023-05-13T00:35:50.042Z,4.07
2023-05-13T00:38:54.655Z,4.38
2023-05-13T00:41:59.385Z,3.85
2023-05-13T00:45:04.992Z,3.90
2023-05-13T00:48:09.647Z,3.63
2023-05-13T00:51:14.329Z,3.85
2023-05-13T00:54:19.068Z,4.35
2023-05-13T00:57:23.963Z,4.57
2023-05-13T01:00:32.099Z,4.00
2023-05-13T01:04:14.294Z,3.67
2023-05-13T01:07:34.073Z,3.50
2023-05-13T01:10:51.306Z,4.13
2023-05-13T01:14:09.356Z,4.35
2023-05-13T01:18:02.151Z,4.25
2023-05-13T01:21:08.641Z,4.45
2023-05-13T01:24:13.128Z,4.70
2023-05-13T01:27:17.870Z,4.25
2023-05-13T01:30:24.214Z,4.30
2023-05-13T01:33:30.139Z,4.82
2023-05-13T01:36:35.687Z,4.03
2023-05-13T01:39:41.967Z,4.85
2023-05-13T01:42:50.768Z,4.97
2023-05-13T01:45:56.084Z,5.30
2023-05-13T01:49:01.497Z,4.20
2023-05-13T01:52:06.666Z,4.25
2023-05-13T01:55:12.390Z,4.95
2023-05-13T01:58:17.464Z,4.47
2023-05-13T02:01:22.878Z,4.80
2023-05-13T02:04:27.741Z,5.60
2023-05-13T02:07:34.533Z,5.07
2023-05-13T02:10:39.777Z,5.32
2023-05-13T02:13:44.899Z,4.47
2023-05-13T02:16:49.545Z,4.57
2023-05-13T02:19:54.236Z,4.80
2023-05-13T02:22:59.044Z,5.10
2023-05-13T02:26:04.268Z,4.90
2023-05-13T02:29:09.187Z,5.35
2023-05-13T02:32:14.174Z,4.57
2023-05-13T02:35:18.429Z,5.57
2023-05-13T02:38:22.971Z,5.30
2023-05-13T02:41:27.336Z,4.55
2023-05-13T02:44:32.182Z,5.10
2023-05-13T02:47:39.879Z,5.70
2023-05-13T02:50:45.397Z,4.70
2023-05-13T02:53:50.087Z,6.25
2023-05-13T02:56:54.586Z,5.13
2023-05-13T02:59:59.193Z,5.10
2023-05-13T03:03:03.895Z,5.10
2023-05-13T03:06:09.007Z,4.97
2023-05-13T03:09:14.019Z,5.10
2023-05-13T03:12:18.658Z,4.85
2023-05-13T03:15:23.252Z,4.97
2023-05-13T03:18:31.605Z,5.15
2023-05-13T03:21:37.175Z,5.30
2023-05-13T03:24:44.311Z,5.30
2023-05-13T03:27:49.485Z,6.00
2023-05-13T03:30:56.729Z,6.10
2023-05-13T03:34:01.305Z,6.15
2023-05-13T03:37:06.759Z,6.30
2023-05-13T03:40:11.916Z,5.32
2023-05-13T03:43:17.354Z,5.18
2023-05-13T03:46:27.417Z,5.65
2023-05-13T03:49:33.392Z,6.38
2023-05-13T03:52:38.059Z,6.07
2023-05-13T03:55:43.355Z,6.50
2023-05-13T03:58:47.914Z,6.80
2023-05-13T04:01:52.508Z,7.22
2023-05-13T04:04:57.238Z,7.15
2023-05-13T04:08:03.404Z,7.78
2023-05-13T04:11:07.866Z,7.40
2023-05-13T04:14:13.098Z,7.57
2023-05-13T04:17:17.493Z,5.97
2023-05-13T04:20:22.138Z,7.22
2023-05-13T04:23:27.135Z,7.25
2023-05-13T04:26:31.567Z,7.20
2023-05-13T04:29:36.444Z,6.55
2023-05-13T04:32:41.271Z,6.45
2023-05-13T04:35:47.419Z,6.85
2023-05-13T04:38:51.783Z,6.57
2023-05-13T04:41:56.855Z,6.03
2023-05-13T04:45:02.976Z,6.10
2023-05-13T04:48:08.716Z,7.53
2023-05-13T04:51:13.122Z,6.72
2023-05-13T04:54:18.269Z,6.35
2023-05-13T04:57:23.502Z,5.05
2023-05-13T05:00:29.482Z,6.13
2023-05-13T05:03:34.537Z,7.30
2023-05-13T05:06:39.629Z,6.70
2023-05-13T05:09:44.584Z,6.30
2023-05-13T05:12:49.502Z,5.85
2023-05-13T05:15:54.204Z,6.65
2023-05-13T05:18:59.394Z,5.82
2023-05-13T05:22:04.787Z,5.72
2023-05-13T05:25:10.747Z,5.40
2023-05-13T05:28:15.484Z,6.63
2023-05-13T05:31:22.195Z,6.03
2023-05-13T05:34:27.080Z,6.00
2023-05-13T05:37:32.022Z,4.97
2023-05-13T05:40:41.915Z,6.05
2023-05-13T05:43:46.536Z,4.43
2023-05-13T05:46:52.752Z,5.85
2023-05-13T05:49:57.555Z,5.15
2023-05-13T05:53:03.784Z,5.88
2023-05-13T05:56:11.244Z,6.07
2023-05-13T05:59:15.823Z,5.30
2023-05-13T06:02:20.571Z,5.78
2023-05-13T06:05:25.548Z,4.22
2023-05-13T06:08:30.949Z,5.57
2023-05-13T06:11:35.953Z,5.03
2023-05-13T06:14:41.456Z,3.92
2023-05-13T06:17:47.401Z,4.30
2023-05-13T06:20:52.102Z,5.07
2023-05-13T06:23:56.817Z,4.35
2023-05-13T06:27:01.924Z,4.15
2023-05-13T06:30:07.670Z,3.90
2023-05-13T06:33:12.740Z,4.75
2023-05-13T06:36:17.367Z,4.70
2023-05-13T06:39:23.591Z,4.60
2023-05-13T06:42:29.326Z,4.65
2023-05-13T06:45:38.253Z,4.93
2023-05-13T06:48:43.642Z,4.20
2023-05-13T06:51:48.698Z,3.30
2023-05-13T06:54:53.498Z,4.05
2023-05-13T06:57:58.218Z,3.90
2023-05-13T07:01:03.072Z,3.67
2023-05-13T07:04:08.178Z,2.88
2023-05-13T07:07:12.654Z,3.47
2023-05-13T07:10:17.009Z,3.55
2023-05-13T07:13:22.413Z,3.63
2023-05-13T07:16:27.568Z,2.95
2023-05-13T07:19:31.850Z,3.10
2023-05-13T07:22:36.542Z,3.63
2023-05-13T07:25:40.744Z,3.20
2023-05-13T07:28:45.625Z,3.10
2023-05-13T07:31:50.711Z,3.10
2023-05-13T07:34:55.441Z,2.70
2023-05-13T07:38:00.499Z,2.83
2023-05-13T07:41:05.424Z,2.90
2023-05-13T07:44:13.147Z,3.33
2023-05-13T07:47:18.137Z,2.88
2023-05-13T07:50:22.730Z,2.75
2023-05-13T07:53:27.409Z,3.15
2023-05-13T07:56:32.324Z,3.35
2023-05-13T07:59:39.672Z,3.38
2023-05-13T08:02:45.365Z,3.53
2023-05-13T08:05:50.349Z,3.38
2023-05-13T08:08:55.185Z,3.33
2023-05-13T08:11:59.883Z,2.92
2023-05-13T08:15:06.018Z,2.63
2023-05-13T08:18:10.665Z,2.22
2023-05-13T08:21:15.482Z,2.40
2023-05-13T08:24:20.260Z,2.70
2023-05-13T08:27:25.355Z,2.80
2023-05-13T08:30:29.979Z,2.53
2023-05-13T08:33:34.799Z,2.38
2023-05-13T08:36:39.662Z,2.88
2023-05-13T08:39:44.627Z,2.50
2023-05-13T08:42:52.790Z,1.77
2023-05-13T08:46:06.835Z,2.33
2023-05-13T08:49:12.181Z,2.50
2023-05-13T08:52:19.243Z,2.60
2023-05-13T08:55:24.656Z,2.30
2023-05-13T08:58:29.818Z,2.40
2023-05-13T09:01:34.826Z,2.20
2023-05-13T09:04:42.210Z,2.13
2023-05-13T09:07:46.798Z,2.08
2023-05-13T09:10:51.164Z,2.53
2023-05-13T09:14:00.500Z,2.40
2023-05-13T09:17:05.642Z,2.30
2023-05-13T09:20:13.362Z,2.20
2023-05-13T09:23:18.767Z,2.38
2023-05-13T09:26:28.537Z,2.60
2023-05-13T09:29:33.420Z,2.00
2023-05-13T09:32:39.983Z,2.22
2023-05-13T09:35:53.526Z,2.10
2023-05-13T09:38:58.185Z,2.75
2023-05-13T09:42:05.107Z,2.80
2023-05-13T09:45:12.311Z,2.63
2023-05-13T09:48:16.889Z,2.70
2023-05-13T09:51:30.952Z,2.40
2023-05-13T09:54:39.290Z,2.60
2023-05-13T09:57:43.924Z,2.22
2023-05-13T10:00:49.205Z,2.75
2023-05-13T10:03:56.512Z,2.58
2023-05-13T10:07:05.866Z,2.30
2023-05-13T10:10:11.201Z,3.03
2023-05-13T10:13:18.112Z,2.40
2023-05-13T10:16:27.705Z,2.45
2023-05-13T10:19:32.821Z,2.95
2023-05-13T10:22:46.263Z,3.10
2023-05-13T10:25:51.996Z,3.10
2023-05-13T10:28:58.148Z,3.10
2023-05-13T10:32:04.373Z,2.72
2023-05-13T10:35:20.040Z,2.40
2023-05-13T10:42:24.856Z,2.70
2023-05-13T10:45:33.385Z,3.20
2023-05-13T10:48:43.464Z,3.15
2023-05-13T10:51:50.006Z,2.50
2023-05-13T10:55:02.683Z,3.00
2023-05-13T10:58:16.197Z,2.80
2023-05-13T11:01:44.436Z,3.17
2023-05-13T11:05:02.096Z,3.20
2023-05-13T11:08:06.956Z,2.88
2023-05-13T11:11:38.194Z,2.58
2023-05-13T11:14:44.682Z,3.03
2023-05-13T11:17:53.707Z,2.47
2023-05-13T11:21:05.645Z,2.42
2023-05-13T11:24:16.924Z,3.03
2023-05-13T11:27:21.906Z,2.88
2023-05-13T11:30:27.754Z,3.05
2023-05-13T11:34:05.876Z,2.20
2023-05-13T11:37:11.058Z,2.75
2023-05-13T11:40:26.406Z,2.60
2023-05-13T11:43:34.529Z,3.03
2023-05-13T11:46:39.159Z,2.67
2023-05-13T11:49:47.636Z,2.55
2023-05-13T11:52:54.161Z,2.40
2023-05-13T11:56:12.915Z,2.90
2023-05-13T11:59:17.449Z,2.17
2023-05-13T12:02:29.067Z,2.20
2023-05-13T12:05:33.651Z,2.00
2023-05-13T12:08:45.619Z,2.40
2023-05-13T12:11:54.010Z,2.60
2023-05-13T12:15:11.600Z,3.28
2023-05-13T12:18:16.406Z,2.20
2023-05-13T12:21:21.481Z,2.53
2023-05-13T12:24:25.947Z,2.70
2023-05-13T12:27:33.485Z,2.95
2023-05-13T12:30:56.688Z,2.33
2023-05-13T12:34:09.189Z,2.30
2023-05-13T12:37:14.189Z,2.53
2023-05-13T12:40:18.560Z,2.17
2023-05-13T12:43:23.345Z,2.30
2023-05-13T12:46:28.761Z,2.55
2023-05-13T12:49:50.833Z,2.40
2023-05-13T12:52:57.656Z,2.22
2023-05-13T12:56:02.266Z,2.00
2023-05-13T12:59:08.856Z,2.42
2023-05-13T13:02:14.108Z,2.72
2023-05-13T13:05:25.039Z,2.20
2023-05-13T13:08:30.832Z,2.70
2023-05-13T13:11:43.069Z,2.58
2023-05-13T13:14:49.092Z,2.55
2023-05-13T13:17:53.764Z,2.40
2023-05-13T13:20:58.711Z,2.50
2023-05-13T13:24:03.379Z,2.80
2023-05-13T13:27:08.146Z,2.10
2023-05-13T13:30:14.481Z,2.30
2023-05-13T13:33:19.486Z,2.50
2023-05-13T13:36:23.898Z,2.42
2023-05-13T13:39:28.688Z,2.60
2023-05-13T13:42:43.529Z,2.70
2023-05-13T13:45:49.718Z,2.55
2023-05-13T13:48:54.311Z,3.00
2023-05-13T13:51:58.764Z,2.47
2023-05-13T13:55:03.440Z,2.53
2023-05-13T13:58:08.193Z,2.45
2023-05-13T14:01:12.661Z,2.72
2023-05-13T14:04:23.263Z,2.47
2023-05-13T14:07:28.316Z,2.20
2023-05-13T14:10:32.590Z,2.47
2023-05-13T14:13:37.014Z,3.13
2023-05-13T14:16:41.629Z,2.30
2023-05-13T14:19:46.755Z,2.45
2023-05-13T14:22:51.496Z,2.72
2023-05-13T14:25:56.210Z,2.83
2023-05-13T14:29:00.880Z,2.42
2023-05-13T14:32:06.204Z,2.50
2023-05-13T14:35:12.635Z,2.92
2023-05-13T14:38:17.276Z,2.95
2023-05-13T14:41:23.165Z,2.83
2023-05-13T14:44:30.302Z,2.42
2023-05-13T14:47:35.828Z,3.00
2023-05-13T14:50:41.946Z,2.58
2023-05-13T14:53:46.710Z,2.67
2023-05-13T14:56:52.629Z,2.72
2023-05-13T14:59:59.336Z,2.67
2023-05-13T15:03:05.475Z,2.97
2023-05-13T15:06:10.734Z,2.28
2023-05-13T15:09:15.893Z,2.85
2023-05-13T15:12:20.625Z,2.58
2023-05-13T15:15:25.359Z,2.83
2023-05-13T15:18:31.383Z,2.67
2023-05-13T15:21:36.207Z,2.72
2023-05-13T15:24:41.924Z,2.28
2023-05-13T15:27:47.945Z,2.30
2023-05-13T15:30:52.898Z,2.83
2023-05-13T15:33:57.929Z,2.92
2023-05-13T15:37:02.737Z,2.90
2023-05-13T15:40:11.611Z,2.90
2023-05-13T15:43:15.803Z,2.33
2023-05-13T15:46:21.686Z,2.30
2023-05-13T15:49:27.406Z,2.60
2023-05-13T15:52:32.312Z,2.10
2023-05-13T15:55:39.406Z,2.40
2023-05-13T15:58:47.615Z,3.17
2023-05-13T16:01:52.798Z,3.20
2023-05-13T16:04:57.563Z,2.40
2023-05-13T16:08:02.132Z,2.95
2023-05-13T16:11:06.637Z,2.60
2023-05-13T16:14:11.324Z,2.67
2023-05-13T16:17:16.253Z,2.47
2023-05-13T16:20:21.038Z,2.90
2023-05-13T16:23:26.372Z,2.75
2023-05-13T16:26:30.930Z,2.67
2023-05-13T16:29:36.069Z,2.42
2023-05-13T16:32:40.865Z,2.53
2023-05-13T16:35:45.817Z,2.67
2023-05-13T16:38:50.317Z,4.50
2023-05-13T16:41:55.751Z,4.80
2023-05-13T16:45:00.465Z,4.47
2023-05-13T16:48:06.154Z,3.75
2023-05-13T16:51:10.473Z,3.03
2023-05-13T16:54:14.915Z,3.00
2023-05-13T16:57:22.266Z,2.60
2023-05-13T17:00:27.199Z,2.83
2023-05-13T17:03:31.751Z,2.60
2023-05-13T17:06:36.531Z,2.50
2023-05-13T17:09:41.192Z,2.63
2023-05-13T17:12:45.918Z,2.60
2023-05-13T17:15:56.451Z,2.35
2023-05-13T17:19:01.319Z,2.80
2023-05-13T17:22:06.003Z,2.42
2023-05-13T17:25:11.014Z,2.97
2023-05-13T17:28:21.943Z,2.58
2023-05-13T17:31:30.008Z,2.58
2023-05-13T17:34:35.001Z,2.30
2023-05-13T17:37:39.886Z,2.05
2023-05-13T17:40:44.328Z,2.80
2023-05-13T17:43:49.014Z,2.15
2023-05-13T17:46:56.725Z,2.85
2023-05-13T17:50:01.645Z,2.40
2023-05-13T17:53:06.551Z,2.45
2023-05-13T17:56:11.867Z,2.00
2023-05-13T17:59:16.832Z,2.17
2023-05-13T18:02:21.714Z,1.73
2023-05-13T18:05:26.639Z,2.10
2023-05-13T18:08:31.574Z,2.10
2023-05-13T18:11:35.940Z,1.80
2023-05-13T18:14:40.747Z,1.70
2023-05-13T18:17:45.682Z,1.80
2023-05-13T18:20:50.138Z,1.70
2023-05-13T18:23:55.856Z,2.08
2023-05-13T18:27:00.612Z,2.00
2023-05-13T18:30:07.043Z,1.92
2023-05-13T18:33:11.570Z,1.70
2023-05-13T18:36:16.154Z,1.75
2023-05-13T18:39:23.660Z,2.13
2023-05-13T18:42:29.883Z,1.83
2023-05-13T18:45:34.687Z,2.05
2023-05-13T18:48:39.958Z,1.65
2023-05-13T18:51:45.453Z,1.85
2023-05-13T18:54:50.070Z,1.55
2023-05-13T18:57:55.118Z,1.48
2023-05-13T19:01:00.033Z,1.90
2023-05-13T19:04:04.742Z,2.00
2023-05-13T19:07:09.495Z,2.10
2023-05-13T19:10:16.638Z,1.98
2023-05-13T19:13:22.448Z,2.22
2023-05-13T19:16:29.906Z,2.20
2023-05-13T19:19:34.427Z,2.15
2023-05-13T19:22:42.239Z,2.42
2023-05-13T19:25:47.127Z,2.40
2023-05-13T19:28:51.839Z,2.40
2023-05-13T19:31:56.558Z,2.63
2023-05-13T19:35:01.247Z,2.42
2023-05-13T19:38:06.702Z,2.58
2023-05-13T19:41:11.121Z,2.70
2023-05-13T19:44:15.880Z,2.30
2023-05-13T19:47:20.497Z,2.33
2023-05-13T19:50:25.425Z,2.72
2023-05-13T19:53:29.965Z,2.70
2023-05-13T19:56:41.579Z,2.67
2023-05-13T19:59:47.469Z,2.83
2023-05-13T20:02:52.173Z,2.45
2023-05-13T20:05:56.755Z,2.10
2023-05-13T20:09:01.989Z,3.00
2023-05-13T20:12:07.758Z,2.58
2023-05-13T20:15:12.556Z,2.65
2023-05-13T20:18:17.588Z,3.40
2023-05-13T20:21:22.143Z,2.80
2023-05-13T20:24:26.624Z,2.80
2023-05-13T20:27:31.423Z,2.88
2023-05-13T20:30:36.377Z,3.00
2023-05-13T20:33:41.952Z,2.85
2023-05-13T20:36:46.968Z,2.97
2023-05-13T20:39:52.145Z,3.97
2023-05-13T20:42:57.353Z,3.17
2023-05-13T20:46:04.340Z,3.20
2023-05-13T20:49:09.734Z,3.70
2023-05-13T20:52:14.599Z,3.40
2023-05-13T20:55:20.624Z,3.50
2023-05-13T20:58:26.196Z,3.13
2023-05-13T21:01:31.121Z,3.28
2023-05-13T21:04:35.700Z,4.15
2023-05-13T21:07:40.539Z,3.53
2023-05-13T21:10:45.446Z,2.80
2023-05-13T21:13:50.252Z,4.05
2023-05-13T21:16:55.387Z,2.67
2023-05-13T21:20:00.217Z,3.17
2023-05-13T21:23:04.521Z,3.10
2023-05-13T21:26:10.654Z,2.42
2023-05-13T21:29:16.789Z,3.53
2023-05-13T21:32:22.830Z,3.28
2023-05-13T21:35:28.179Z,3.42
2023-05-13T21:38:32.816Z,3.63
2023-05-13T21:41:37.814Z,3.58
2023-05-13T21:44:42.391Z,3.30
2023-05-13T21:47:47.495Z,3.60
2023-05-13T21:50:52.769Z,3.67
2023-05-13T21:53:57.494Z,3.47
2023-05-13T21:57:02.044Z,3.80
2023-05-13T22:00:18.045Z,3.83
2023-05-13T22:03:23.227Z,3.60
2023-05-13T22:06:28.124Z,4.00
2023-05-13T22:09:33.007Z,4.00
2023-05-13T22:12:37.981Z,3.70
2023-05-13T22:15:42.492Z,3.33
2023-05-13T22:18:46.944Z,3.33
2023-05-13T22:21:51.665Z,4.20
2023-05-13T22:24:56.335Z,3.90
2023-05-13T22:28:01.181Z,4.72
2023-05-13T22:31:06.224Z,4.45
2023-05-13T22:34:10.838Z,4.32
2023-05-13T22:37:15.676Z,4.20
2023-05-13T22:40:20.547Z,4.13
2023-05-13T22:43:25.466Z,4.28
2023-05-13T22:46:30.157Z,4.65
2023-05-13T22:49:35.373Z,4.38
2023-05-13T22:52:40.389Z,3.88
2023-05-13T22:55:44.778Z,4.65
2023-05-13T22:58:49.575Z,4.70
2023-05-13T23:01:54.096Z,4.65
2023-05-13T23:04:58.991Z,4.65
2023-05-13T23:08:03.795Z,5.07
2023-05-13T23:11:08.411Z,4.90
2023-05-13T23:14:13.383Z,6.20
2023-05-13T23:17:18.240Z,5.57
2023-05-13T23:20:23.268Z,5.10
2023-05-13T23:23:27.819Z,5.22
2023-05-13T23:26:32.036Z,5.50
2023-05-13T23:29:36.714Z,5.43
2023-05-13T23:32:41.400Z,5.28
2023-05-13T23:35:52.952Z,5.25
2023-05-13T23:38:57.586Z,5.43
2023-05-13T23:42:02.373Z,5.30
2023-05-13T23:45:07.649Z,5.18
2023-05-13T23:48:12.081Z,5.55
2023-05-13T23:51:17.054Z,5.35
2023-05-13T23:54:21.804Z,6.30
2023-05-13T23:57:27.119Z,6.20
